Terminal Aerodrome Forecast
Issued by NWS Albany, NY

Home | Current Version | Previous Version | Text Only | Print | Product List | Glossary On
Versions: 1 2 3 4 5 6 7 8 9 10 11 12 13 14 15 16 17 18 19 20
000
FTUS41 KALY 201700
TAFALB
TAF
KALB 201721Z 2018/2118 36004KT P6SM BKN040
     FM210300 VRB03KT P6SM BKN025 OVC040
     FM211100 01004KT P6SM VCSH BKN018 OVC030 PROB30 2113/2117 5SM
      -SHSN BR BKN012 OVC025=

USA.gov is the U.S. government's official web portal to all federal, state and local government web resources and services.